sensor_id;sensor_type;location;lat;lon;timestamp;P1;durP1;ratioP1;P2;durP2;ratioP2
59042;SDS011;44826;51.596;5.624;2023-02-25T00:02:22;6.70;;;1.40;;
59042;SDS011;44826;51.596;5.624;2023-02-25T00:04:48;6.37;;;1.40;;
59042;SDS011;44826;51.596;5.624;2023-02-25T00:07:13;9.13;;;1.47;;
59042;SDS011;44826;51.596;5.624;2023-02-25T00:09:39;9.13;;;1.60;;
59042;SDS011;44826;51.596;5.624;2023-02-25T00:12:05;5.50;;;1.23;;
59042;SDS011;44826;51.596;5.624;2023-02-25T00:14:31;6.73;;;1.80;;
59042;SDS011;44826;51.596;5.624;2023-02-25T00:16:56;7.67;;;1.40;;
59042;SDS011;44826;51.596;5.624;2023-02-25T00:19:22;6.17;;;1.37;;
59042;SDS011;44826;51.596;5.624;2023-02-25T00:21:48;6.43;;;1.40;;
59042;SDS011;44826;51.596;5.624;2023-02-25T00:24:13;7.50;;;1.50;;
59042;SDS011;44826;51.596;5.624;2023-02-25T00:26:39;9.70;;;1.73;;
59042;SDS011;44826;51.596;5.624;2023-02-25T00:29:05;9.43;;;2.20;;
59042;SDS011;44826;51.596;5.624;2023-02-25T00:31:30;9.77;;;1.93;;
59042;SDS011;44826;51.596;5.624;2023-02-25T00:33:56;6.77;;;1.60;;
59042;SDS011;44826;51.596;5.624;2023-02-25T00:36:22;7.63;;;1.60;;
59042;SDS011;44826;51.596;5.624;2023-02-25T00:38:49;6.77;;;1.30;;
59042;SDS011;44826;51.596;5.624;2023-02-25T00:41:18;7.67;;;1.30;;
59042;SDS011;44826;51.596;5.624;2023-02-25T00:43:48;6.83;;;1.47;;
59042;SDS011;44826;51.596;5.624;2023-02-25T00:46:15;7.73;;;1.33;;
59042;SDS011;44826;51.596;5.624;2023-02-25T00:48:40;6.00;;;1.20;;
59042;SDS011;44826;51.596;5.624;2023-02-25T00:53:31;6.80;;;1.20;;
59042;SDS011;44826;51.596;5.624;2023-02-25T00:55:58;9.20;;;1.20;;
59042;SDS011;44826;51.596;5.624;2023-02-25T00:58:24;4.77;;;1.10;;
59042;SDS011;44826;51.596;5.624;2023-02-25T01:00:49;7.63;;;1.17;;
59042;SDS011;44826;51.596;5.624;2023-02-25T01:03:15;5.97;;;1.10;;
59042;SDS011;44826;51.596;5.624;2023-02-25T01:05:40;6.67;;;1.50;;
59042;SDS011;44826;51.596;5.624;2023-02-25T01:08:06;8.07;;;1.40;;
59042;SDS011;44826;51.596;5.624;2023-02-25T01:10:31;7.87;;;1.23;;
59042;SDS011;44826;51.596;5.624;2023-02-25T01:12:57;9.80;;;1.30;;
59042;SDS011;44826;51.596;5.624;2023-02-25T01:15:22;5.40;;;1.20;;
59042;SDS011;44826;51.596;5.624;2023-02-25T01:17:47;8.50;;;1.20;;
59042;SDS011;44826;51.596;5.624;2023-02-25T01:20:12;10.37;;;1.40;;
59042;SDS011;44826;51.596;5.624;2023-02-25T01:22:38;7.47;;;1.07;;
59042;SDS011;44826;51.596;5.624;2023-02-25T01:25:06;5.27;;;1.60;;
59042;SDS011;44826;51.596;5.624;2023-02-25T01:27:32;4.57;;;0.90;;
59042;SDS011;44826;51.596;5.624;2023-02-25T01:29:58;8.80;;;1.30;;
59042;SDS011;44826;51.596;5.624;2023-02-25T01:32:23;5.47;;;1.10;;
59042;SDS011;44826;51.596;5.624;2023-02-25T01:34:48;5.20;;;0.90;;
59042;SDS011;44826;51.596;5.624;2023-02-25T01:37:14;8.20;;;1.00;;
59042;SDS011;44826;51.596;5.624;2023-02-25T01:39:39;7.17;;;1.20;;
59042;SDS011;44826;51.596;5.624;2023-02-25T01:42:09;9.60;;;1.20;;
59042;SDS011;44826;51.596;5.624;2023-02-25T01:45:20;7.60;;;1.00;;
59042;SDS011;44826;51.596;5.624;2023-02-25T01:47:45;4.60;;;1.00;;
59042;SDS011;44826;51.596;5.624;2023-02-25T01:50:23;7.87;;;1.20;;
59042;SDS011;44826;51.596;5.624;2023-02-25T01:52:51;6.40;;;0.73;;
59042;SDS011;44826;51.596;5.624;2023-02-25T01:55:18;6.57;;;1.00;;
59042;SDS011;44826;51.596;5.624;2023-02-25T01:57:44;7.47;;;1.13;;
59042;SDS011;44826;51.596;5.624;2023-02-25T02:00:09;6.67;;;1.03;;
59042;SDS011;44826;51.596;5.624;2023-02-25T02:02:40;5.57;;;1.00;;
59042;SDS011;44826;51.596;5.624;2023-02-25T02:05:08;3.90;;;0.93;;
59042;SDS011;44826;51.596;5.624;2023-02-25T02:07:34;10.67;;;1.10;;
59042;SDS011;44826;51.596;5.624;2023-02-25T02:09:59;4.93;;;0.80;;
59042;SDS011;44826;51.596;5.624;2023-02-25T02:12:34;5.70;;;0.80;;
59042;SDS011;44826;51.596;5.624;2023-02-25T02:15:03;4.47;;;0.97;;
59042;SDS011;44826;51.596;5.624;2023-02-25T02:22:45;9.37;;;1.10;;
59042;SDS011;44826;51.596;5.624;2023-02-25T02:34:01;6.00;;;0.90;;
59042;SDS011;44826;51.596;5.624;2023-02-25T02:36:48;7.47;;;1.33;;
59042;SDS011;44826;51.596;5.624;2023-02-25T02:41:57;7.30;;;1.00;;
59042;SDS011;44826;51.596;5.624;2023-02-25T02:44:29;6.65;;;1.20;;
59042;SDS011;44826;51.596;5.624;2023-02-25T02:47:02;7.43;;;1.37;;
59042;SDS011;44826;51.596;5.624;2023-02-25T02:49:41;7.45;;;1.08;;
59042;SDS011;44826;51.596;5.624;2023-02-25T02:52:13;9.20;;;1.30;;
59042;SDS011;44826;51.596;5.624;2023-02-25T02:54:43;9.40;;;1.10;;
59042;SDS011;44826;51.596;5.624;2023-02-25T02:57:15;7.00;;;0.93;;
59042;SDS011;44826;51.596;5.624;2023-02-25T02:59:46;9.63;;;1.10;;
59042;SDS011;44826;51.596;5.624;2023-02-25T03:02:17;6.07;;;1.23;;
59042;SDS011;44826;51.596;5.624;2023-02-25T03:05:00;6.30;;;1.17;;
59042;SDS011;44826;51.596;5.624;2023-02-25T03:07:30;5.43;;;0.85;;
59042;SDS011;44826;51.596;5.624;2023-02-25T03:09:59;7.67;;;0.90;;
59042;SDS011;44826;51.596;5.624;2023-02-25T03:12:27;3.80;;;0.80;;
59042;SDS011;44826;51.596;5.624;2023-02-25T03:14:54;8.40;;;1.87;;
59042;SDS011;44826;51.596;5.624;2023-02-25T03:17:27;5.23;;;0.77;;
59042;SDS011;44826;51.596;5.624;2023-02-25T03:20:09;5.10;;;0.80;;
59042;SDS011;44826;51.596;5.624;2023-02-25T03:22:41;5.50;;;1.23;;
59042;SDS011;44826;51.596;5.624;2023-02-25T03:25:15;5.87;;;0.90;;
59042;SDS011;44826;51.596;5.624;2023-02-25T03:27:48;6.07;;;1.00;;
59042;SDS011;44826;51.596;5.624;2023-02-25T03:30:30;6.43;;;1.10;;
59042;SDS011;44826;51.596;5.624;2023-02-25T03:36:00;7.73;;;1.30;;
59042;SDS011;44826;51.596;5.624;2023-02-25T03:38:31;7.63;;;1.20;;
59042;SDS011;44826;51.596;5.624;2023-02-25T03:41:00;6.70;;;1.00;;
59042;SDS011;44826;51.596;5.624;2023-02-25T03:44:11;4.87;;;1.20;;
59042;SDS011;44826;51.596;5.624;2023-02-25T03:46:19;6.53;;;1.30;;
59042;SDS011;44826;51.596;5.624;2023-02-25T03:48:46;5.40;;;0.97;;
59042;SDS011;44826;51.596;5.624;2023-02-25T03:51:14;7.30;;;1.23;;
59042;SDS011;44826;51.596;5.624;2023-02-25T03:53:44;6.03;;;1.23;;
59042;SDS011;44826;51.596;5.624;2023-02-25T03:56:09;7.70;;;1.37;;
59042;SDS011;44826;51.596;5.624;2023-02-25T03:58:36;7.00;;;1.60;;
59042;SDS011;44826;51.596;5.624;2023-02-25T04:01:04;9.00;;;1.60;;
59042;SDS011;44826;51.596;5.624;2023-02-25T04:03:36;7.60;;;1.20;;
59042;SDS011;44826;51.596;5.624;2023-02-25T04:06:01;5.70;;;1.20;;
59042;SDS011;44826;51.596;5.624;2023-02-25T04:08:26;6.17;;;1.17;;
59042;SDS011;44826;51.596;5.624;2023-02-25T04:10:51;8.57;;;1.40;;
59042;SDS011;44826;51.596;5.624;2023-02-25T04:13:17;5.30;;;1.00;;
59042;SDS011;44826;51.596;5.624;2023-02-25T04:15:45;8.03;;;1.50;;
59042;SDS011;44826;51.596;5.624;2023-02-25T04:18:11;9.60;;;1.40;;
59042;SDS011;44826;51.596;5.624;2023-02-25T04:20:37;10.53;;;1.57;;
59042;SDS011;44826;51.596;5.624;2023-02-25T04:23:03;8.60;;;1.40;;
59042;SDS011;44826;51.596;5.624;2023-02-25T04:25:28;9.97;;;1.60;;
59042;SDS011;44826;51.596;5.624;2023-02-25T04:27:53;8.87;;;1.40;;
59042;SDS011;44826;51.596;5.624;2023-02-25T04:30:19;9.60;;;1.47;;
59042;SDS011;44826;51.596;5.624;2023-02-25T04:32:44;9.00;;;1.80;;
59042;SDS011;44826;51.596;5.624;2023-02-25T04:35:10;13.10;;;1.83;;
59042;SDS011;44826;51.596;5.624;2023-02-25T04:37:36;12.23;;;1.57;;
59042;SDS011;44826;51.596;5.624;2023-02-25T04:40:02;7.37;;;1.17;;
59042;SDS011;44826;51.596;5.624;2023-02-25T04:42:29;9.43;;;1.67;;
59042;SDS011;44826;51.596;5.624;2023-02-25T04:44:54;10.83;;;1.30;;
59042;SDS011;44826;51.596;5.624;2023-02-25T04:47:20;7.67;;;1.40;;
59042;SDS011;44826;51.596;5.624;2023-02-25T04:49:45;8.33;;;1.47;;
59042;SDS011;44826;51.596;5.624;2023-02-25T04:52:11;6.57;;;1.50;;
59042;SDS011;44826;51.596;5.624;2023-02-25T04:54:37;10.70;;;1.40;;
59042;SDS011;44826;51.596;5.624;2023-02-25T04:57:03;10.50;;;1.37;;
59042;SDS011;44826;51.596;5.624;2023-02-25T04:59:28;11.00;;;1.80;;
59042;SDS011;44826;51.596;5.624;2023-02-25T05:01:53;12.73;;;1.47;;
59042;SDS011;44826;51.596;5.624;2023-02-25T05:04:19;7.83;;;1.40;;
59042;SDS011;44826;51.596;5.624;2023-02-25T05:06:44;7.17;;;1.47;;
59042;SDS011;44826;51.596;5.624;2023-02-25T05:09:09;10.33;;;1.37;;
59042;SDS011;44826;51.596;5.624;2023-02-25T05:11:34;12.17;;;2.20;;
59042;SDS011;44826;51.596;5.624;2023-02-25T05:14:00;10.10;;;1.30;;
59042;SDS011;44826;51.596;5.624;2023-02-25T05:16:25;16.87;;;2.30;;
59042;SDS011;44826;51.596;5.624;2023-02-25T05:18:50;9.73;;;2.07;;
59042;SDS011;44826;51.596;5.624;2023-02-25T05:21:17;9.07;;;1.53;;
59042;SDS011;44826;51.596;5.624;2023-02-25T05:23:47;16.33;;;1.60;;
59042;SDS011;44826;51.596;5.624;2023-02-25T05:26:13;8.03;;;1.80;;
59042;SDS011;44826;51.596;5.624;2023-02-25T05:28:40;10.37;;;1.80;;
59042;SDS011;44826;51.596;5.624;2023-02-25T05:31:08;10.50;;;1.47;;
59042;SDS011;44826;51.596;5.624;2023-02-25T05:33:35;7.90;;;1.43;;
59042;SDS011;44826;51.596;5.624;2023-02-25T05:36:00;10.70;;;1.20;;
59042;SDS011;44826;51.596;5.624;2023-02-25T05:38:26;9.17;;;1.50;;
59042;SDS011;44826;51.596;5.624;2023-02-25T05:40:52;12.03;;;1.40;;
59042;SDS011;44826;51.596;5.624;2023-02-25T05:43:18;11.90;;;1.60;;
59042;SDS011;44826;51.596;5.624;2023-02-25T05:45:43;10.30;;;1.60;;
59042;SDS011;44826;51.596;5.624;2023-02-25T05:48:09;8.33;;;1.50;;
59042;SDS011;44826;51.596;5.624;2023-02-25T05:50:34;5.80;;;1.10;;
59042;SDS011;44826;51.596;5.624;2023-02-25T05:53:05;7.90;;;1.30;;
59042;SDS011;44826;51.596;5.624;2023-02-25T05:55:30;11.20;;;2.10;;
59042;SDS011;44826;51.596;5.624;2023-02-25T05:57:55;9.17;;;1.30;;
59042;SDS011;44826;51.596;5.624;2023-02-25T06:00:21;9.63;;;1.17;;
59042;SDS011;44826;51.596;5.624;2023-02-25T06:02:46;6.93;;;1.10;;
59042;SDS011;44826;51.596;5.624;2023-02-25T06:05:12;12.67;;;1.50;;
59042;SDS011;44826;51.596;5.624;2023-02-25T06:07:37;6.80;;;1.00;;
59042;SDS011;44826;51.596;5.624;2023-02-25T06:10:03;10.80;;;1.53;;
59042;SDS011;44826;51.596;5.624;2023-02-25T06:12:29;9.17;;;1.30;;
59042;SDS011;44826;51.596;5.624;2023-02-25T06:14:55;9.07;;;1.23;;
59042;SDS011;44826;51.596;5.624;2023-02-25T06:17:21;8.63;;;1.20;;
59042;SDS011;44826;51.596;5.624;2023-02-25T06:19:48;3.57;;;0.90;;
59042;SDS011;44826;51.596;5.624;2023-02-25T06:22:15;13.73;;;1.63;;
59042;SDS011;44826;51.596;5.624;2023-02-25T06:24:40;7.73;;;1.40;;
59042;SDS011;44826;51.596;5.624;2023-02-25T06:27:05;8.53;;;1.27;;
59042;SDS011;44826;51.596;5.624;2023-02-25T06:29:31;10.53;;;1.17;;
59042;SDS011;44826;51.596;5.624;2023-02-25T06:31:56;6.67;;;1.27;;
59042;SDS011;44826;51.596;5.624;2023-02-25T06:34:21;9.93;;;1.20;;
59042;SDS011;44826;51.596;5.624;2023-02-25T06:36:47;6.37;;;1.07;;
59042;SDS011;44826;51.596;5.624;2023-02-25T06:39:12;7.40;;;1.20;;
59042;SDS011;44826;51.596;5.624;2023-02-25T06:41:37;10.30;;;1.20;;
59042;SDS011;44826;51.596;5.624;2023-02-25T06:44:02;7.77;;;1.20;;
59042;SDS011;44826;51.596;5.624;2023-02-25T06:46:29;7.07;;;1.23;;
59042;SDS011;44826;51.596;5.624;2023-02-25T06:48:54;9.43;;;1.60;;
59042;SDS011;44826;51.596;5.624;2023-02-25T06:51:21;7.23;;;1.23;;
59042;SDS011;44826;51.596;5.624;2023-02-25T06:53:46;8.03;;;1.50;;
59042;SDS011;44826;51.596;5.624;2023-02-25T06:56:12;7.83;;;1.33;;
59042;SDS011;44826;51.596;5.624;2023-02-25T06:58:38;9.00;;;1.40;;
59042;SDS011;44826;51.596;5.624;2023-02-25T07:01:05;3.87;;;1.10;;
59042;SDS011;44826;51.596;5.624;2023-02-25T07:03:31;8.77;;;1.80;;
59042;SDS011;44826;51.596;5.624;2023-02-25T07:05:56;6.37;;;1.07;;
59042;SDS011;44826;51.596;5.624;2023-02-25T07:08:22;4.63;;;1.00;;
59042;SDS011;44826;51.596;5.624;2023-02-25T07:10:47;5.90;;;1.30;;
59042;SDS011;44826;51.596;5.624;2023-02-25T07:13:12;4.70;;;1.10;;
59042;SDS011;44826;51.596;5.624;2023-02-25T07:15:37;8.70;;;1.70;;
59042;SDS011;44826;51.596;5.624;2023-02-25T07:18:03;7.30;;;1.17;;
59042;SDS011;44826;51.596;5.624;2023-02-25T07:20:28;11.17;;;1.13;;
59042;SDS011;44826;51.596;5.624;2023-02-25T07:22:54;6.13;;;1.33;;
59042;SDS011;44826;51.596;5.624;2023-02-25T07:25:19;6.77;;;1.30;;
59042;SDS011;44826;51.596;5.624;2023-02-25T07:27:45;6.10;;;1.20;;
59042;SDS011;44826;51.596;5.624;2023-02-25T07:30:11;4.50;;;1.10;;
59042;SDS011;44826;51.596;5.624;2023-02-25T07:32:37;8.20;;;1.27;;
59042;SDS011;44826;51.596;5.624;2023-02-25T07:35:02;10.67;;;1.40;;
59042;SDS011;44826;51.596;5.624;2023-02-25T07:37:28;9.87;;;1.60;;
59042;SDS011;44826;51.596;5.624;2023-02-25T07:39:54;8.03;;;1.20;;
59042;SDS011;44826;51.596;5.624;2023-02-25T07:42:19;7.70;;;1.10;;
59042;SDS011;44826;51.596;5.624;2023-02-25T07:44:44;7.67;;;0.97;;
59042;SDS011;44826;51.596;5.624;2023-02-25T07:47:10;5.17;;;0.83;;
59042;SDS011;44826;51.596;5.624;2023-02-25T07:49:35;9.70;;;1.63;;
59042;SDS011;44826;51.596;5.624;2023-02-25T07:52:03;10.70;;;1.47;;
59042;SDS011;44826;51.596;5.624;2023-02-25T07:54:29;10.53;;;1.40;;
59042;SDS011;44826;51.596;5.624;2023-02-25T07:56:54;9.67;;;1.30;;
59042;SDS011;44826;51.596;5.624;2023-02-25T07:59:19;11.00;;;1.10;;
59042;SDS011;44826;51.596;5.624;2023-02-25T08:01:44;8.67;;;0.93;;
59042;SDS011;44826;51.596;5.624;2023-02-25T08:04:10;6.37;;;1.37;;
59042;SDS011;44826;51.596;5.624;2023-02-25T08:06:36;7.00;;;0.93;;
59042;SDS011;44826;51.596;5.624;2023-02-25T08:09:05;7.73;;;1.30;;
59042;SDS011;44826;51.596;5.624;2023-02-25T08:11:31;5.63;;;0.93;;
59042;SDS011;44826;51.596;5.624;2023-02-25T08:13:59;6.10;;;1.07;;
59042;SDS011;44826;51.596;5.624;2023-02-25T08:16:25;7.07;;;1.43;;
59042;SDS011;44826;51.596;5.624;2023-02-25T08:18:51;8.73;;;1.37;;
59042;SDS011;44826;51.596;5.624;2023-02-25T08:21:17;7.33;;;1.17;;
59042;SDS011;44826;51.596;5.624;2023-02-25T08:23:45;10.80;;;1.30;;
59042;SDS011;44826;51.596;5.624;2023-02-25T08:26:12;7.57;;;1.20;;
59042;SDS011;44826;51.596;5.624;2023-02-25T08:28:40;4.50;;;0.80;;
59042;SDS011;44826;51.596;5.624;2023-02-25T08:31:08;6.70;;;1.00;;
59042;SDS011;44826;51.596;5.624;2023-02-25T08:33:36;7.60;;;1.10;;
59042;SDS011;44826;51.596;5.624;2023-02-25T08:38:36;4.50;;;0.80;;
59042;SDS011;44826;51.596;5.624;2023-02-25T08:41:02;5.53;;;1.00;;
59042;SDS011;44826;51.596;5.624;2023-02-25T08:43:28;5.60;;;0.70;;
59042;SDS011;44826;51.596;5.624;2023-02-25T08:45:54;5.63;;;1.07;;
59042;SDS011;44826;51.596;5.624;2023-02-25T08:48:20;6.07;;;0.80;;
59042;SDS011;44826;51.596;5.624;2023-02-25T08:50:46;6.03;;;0.90;;
59042;SDS011;44826;51.596;5.624;2023-02-25T08:53:11;5.10;;;0.97;;
59042;SDS011;44826;51.596;5.624;2023-02-25T08:55:36;5.53;;;0.90;;
59042;SDS011;44826;51.596;5.624;2023-02-25T08:58:03;5.23;;;0.90;;
59042;SDS011;44826;51.596;5.624;2023-02-25T09:00:29;5.47;;;1.17;;
59042;SDS011;44826;51.596;5.624;2023-02-25T09:02:54;6.90;;;1.23;;
59042;SDS011;44826;51.596;5.624;2023-02-25T09:05:20;9.20;;;1.33;;
59042;SDS011;44826;51.596;5.624;2023-02-25T09:07:45;6.10;;;0.90;;
59042;SDS011;44826;51.596;5.624;2023-02-25T09:10:10;7.90;;;1.07;;
59042;SDS011;44826;51.596;5.624;2023-02-25T09:12:38;8.23;;;1.10;;
59042;SDS011;44826;51.596;5.624;2023-02-25T09:15:04;8.87;;;1.30;;
59042;SDS011;44826;51.596;5.624;2023-02-25T09:17:31;6.37;;;1.20;;
59042;SDS011;44826;51.596;5.624;2023-02-25T09:19:56;9.23;;;1.23;;
59042;SDS011;44826;51.596;5.624;2023-02-25T09:22:25;11.10;;;1.30;;
59042;SDS011;44826;51.596;5.624;2023-02-25T09:24:51;11.67;;;1.53;;
59042;SDS011;44826;51.596;5.624;2023-02-25T09:27:16;8.63;;;1.30;;
59042;SDS011;44826;51.596;5.624;2023-02-25T09:29:41;12.10;;;1.40;;
59042;SDS011;44826;51.596;5.624;2023-02-25T09:32:07;7.87;;;1.17;;
59042;SDS011;44826;51.596;5.624;2023-02-25T09:34:39;7.30;;;1.20;;
59042;SDS011;44826;51.596;5.624;2023-02-25T09:37:04;7.20;;;1.20;;
59042;SDS011;44826;51.596;5.624;2023-02-25T09:39:30;6.23;;;1.20;;
59042;SDS011;44826;51.596;5.624;2023-02-25T09:44:46;5.43;;;1.10;;
59042;SDS011;44826;51.596;5.624;2023-02-25T09:47:14;7.20;;;1.10;;
59042;SDS011;44826;51.596;5.624;2023-02-25T09:52:14;5.90;;;0.90;;
59042;SDS011;44826;51.596;5.624;2023-02-25T09:54:47;7.43;;;1.20;;
59042;SDS011;44826;51.596;5.624;2023-02-25T09:57:17;8.00;;;1.10;;
59042;SDS011;44826;51.596;5.624;2023-02-25T09:59:45;6.17;;;1.00;;
59042;SDS011;44826;51.596;5.624;2023-02-25T10:02:17;6.78;;;1.00;;
59042;SDS011;44826;51.596;5.624;2023-02-25T10:05:05;8.10;;;1.23;;
59042;SDS011;44826;51.596;5.624;2023-02-25T10:07:57;3.40;;;0.77;;
59042;SDS011;44826;51.596;5.624;2023-02-25T10:10:45;8.05;;;0.95;;
59042;SDS011;44826;51.596;5.624;2023-02-25T10:13:23;6.95;;;0.90;;
59042;SDS011;44826;51.596;5.624;2023-02-25T10:19:02;6.25;;;1.02;;
59042;SDS011;44826;51.596;5.624;2023-02-25T10:24:42;2.85;;;0.68;;
59042;SDS011;44826;51.596;5.624;2023-02-25T10:27:32;2.85;;;0.70;;
59042;SDS011;44826;51.596;5.624;2023-02-25T10:30:05;5.82;;;0.82;;
59042;SDS011;44826;51.596;5.624;2023-02-25T10:32:57;4.03;;;0.70;;
59042;SDS011;44826;51.596;5.624;2023-02-25T10:35:28;6.78;;;0.95;;
59042;SDS011;44826;51.596;5.624;2023-02-25T10:37:58;5.07;;;0.60;;
59042;SDS011;44826;51.596;5.624;2023-02-25T10:40:24;4.55;;;0.98;;
59042;SDS011;44826;51.596;5.624;2023-02-25T10:42:53;3.92;;;0.70;;
59042;SDS011;44826;51.596;5.624;2023-02-25T10:45:24;5.03;;;1.10;;
59042;SDS011;44826;51.596;5.624;2023-02-25T10:53:36;3.55;;;0.80;;
59042;SDS011;44826;51.596;5.624;2023-02-25T10:56:02;3.83;;;0.63;;
59042;SDS011;44826;51.596;5.624;2023-02-25T11:01:11;5.57;;;0.82;;
59042;SDS011;44826;51.596;5.624;2023-02-25T11:03:46;2.92;;;0.77;;
59042;SDS011;44826;51.596;5.624;2023-02-25T11:06:25;4.57;;;0.70;;
59042;SDS011;44826;51.596;5.624;2023-02-25T11:08:58;5.25;;;1.10;;
59042;SDS011;44826;51.596;5.624;2023-02-25T11:11:31;3.20;;;0.95;;
59042;SDS011;44826;51.596;5.624;2023-02-25T11:14:01;3.97;;;0.82;;
59042;SDS011;44826;51.596;5.624;2023-02-25T11:16:30;3.33;;;0.68;;
59042;SDS011;44826;51.596;5.624;2023-02-25T11:18:59;4.50;;;0.70;;
59042;SDS011;44826;51.596;5.624;2023-02-25T11:21:34;3.00;;;0.52;;
59042;SDS011;44826;51.596;5.624;2023-02-25T11:24:04;3.35;;;0.50;;
59042;SDS011;44826;51.596;5.624;2023-02-25T11:26:36;3.47;;;0.82;;
59042;SDS011;44826;51.596;5.624;2023-02-25T11:29:07;2.33;;;0.60;;
59042;SDS011;44826;51.596;5.624;2023-02-25T11:31:38;3.58;;;0.50;;
59042;SDS011;44826;51.596;5.624;2023-02-25T11:34:11;3.92;;;0.70;;
59042;SDS011;44826;51.596;5.624;2023-02-25T11:36:40;4.88;;;0.63;;
59042;SDS011;44826;51.596;5.624;2023-02-25T11:39:16;5.55;;;0.70;;
59042;SDS011;44826;51.596;5.624;2023-02-25T11:41:50;3.28;;;0.57;;
59042;SDS011;44826;51.596;5.624;2023-02-25T11:50:01;5.30;;;1.00;;
59042;SDS011;44826;51.596;5.624;2023-02-25T11:52:36;3.10;;;0.75;;
59042;SDS011;44826;51.596;5.624;2023-02-25T11:55:29;2.65;;;0.50;;
59042;SDS011;44826;51.596;5.624;2023-02-25T11:58:15;2.38;;;0.70;;
59042;SDS011;44826;51.596;5.624;2023-02-25T12:06:27;7.45;;;0.60;;
59042;SDS011;44826;51.596;5.624;2023-02-25T12:31:20;4.55;;;0.88;;
59042;SDS011;44826;51.596;5.624;2023-02-25T12:51:14;3.65;;;0.82;;
59042;SDS011;44826;51.596;5.624;2023-02-25T13:10:40;4.05;;;0.70;;
59042;SDS011;44826;51.596;5.624;2023-02-25T13:13:41;3.08;;;0.98;;
59042;SDS011;44826;51.596;5.624;2023-02-25T13:21:49;1.98;;;0.90;;
59042;SDS011;44826;51.596;5.624;2023-02-25T13:30:04;5.47;;;1.00;;
59042;SDS011;44826;51.596;5.624;2023-02-25T13:32:58;5.27;;;0.90;;
59042;SDS011;44826;51.596;5.624;2023-02-25T13:38:32;3.60;;;1.00;;
59042;SDS011;44826;51.596;5.624;2023-02-25T13:44:17;3.70;;;0.90;;
59042;SDS011;44826;51.596;5.624;2023-02-25T13:55:44;9.55;;;0.90;;
59042;SDS011;44826;51.596;5.624;2023-02-25T14:10:00;4.38;;;1.08;;
59042;SDS011;44826;51.596;5.624;2023-02-25T14:23:47;6.97;;;1.10;;
59042;SDS011;44826;51.596;5.624;2023-02-25T14:37:01;4.47;;;1.10;;
59042;SDS011;44826;51.596;5.624;2023-02-25T14:48:37;4.65;;;0.82;;
59042;SDS011;44826;51.596;5.624;2023-02-25T14:57:25;3.45;;;0.90;;
59042;SDS011;44826;51.596;5.624;2023-02-25T15:08:42;4.65;;;0.73;;
59042;SDS011;44826;51.596;5.624;2023-02-25T15:20:15;2.20;;;0.75;;
59042;SDS011;44826;51.596;5.624;2023-02-25T15:22:51;4.10;;;0.70;;
59042;SDS011;44826;51.596;5.624;2023-02-25T15:25:37;5.57;;;0.90;;
59042;SDS011;44826;51.596;5.624;2023-02-25T15:33:33;2.35;;;0.57;;
59042;SDS011;44826;51.596;5.624;2023-02-25T15:36:00;2.58;;;0.70;;
59042;SDS011;44826;51.596;5.624;2023-02-25T15:38:47;5.00;;;0.82;;
59042;SDS011;44826;51.596;5.624;2023-02-25T15:43:58;3.67;;;0.80;;
59042;SDS011;44826;51.596;5.624;2023-02-25T15:56:52;3.25;;;0.80;;
59042;SDS011;44826;51.596;5.624;2023-02-25T16:04:59;4.00;;;1.05;;
59042;SDS011;44826;51.596;5.624;2023-02-25T16:07:37;3.70;;;0.63;;
59042;SDS011;44826;51.596;5.624;2023-02-25T16:10:17;2.40;;;0.95;;
59042;SDS011;44826;51.596;5.624;2023-02-25T16:12:48;2.67;;;0.75;;
59042;SDS011;44826;51.596;5.624;2023-02-25T16:15:24;3.50;;;0.98;;
59042;SDS011;44826;51.596;5.624;2023-02-25T16:17:55;2.40;;;0.70;;
59042;SDS011;44826;51.596;5.624;2023-02-25T16:20:32;2.05;;;0.50;;
59042;SDS011;44826;51.596;5.624;2023-02-25T16:23:10;3.17;;;0.60;;
59042;SDS011;44826;51.596;5.624;2023-02-25T16:25:38;2.05;;;0.60;;
59042;SDS011;44826;51.596;5.624;2023-02-25T16:28:34;3.10;;;0.50;;
59042;SDS011;44826;51.596;5.624;2023-02-25T16:34:15;1.60;;;0.50;;
59042;SDS011;44826;51.596;5.624;2023-02-25T16:39:36;3.60;;;0.88;;
59042;SDS011;44826;51.596;5.624;2023-02-25T16:42:03;1.52;;;0.50;;
59042;SDS011;44826;51.596;5.624;2023-02-25T16:44:35;2.35;;;0.60;;
59042;SDS011;44826;51.596;5.624;2023-02-25T16:47:03;3.53;;;0.70;;
59042;SDS011;44826;51.596;5.624;2023-02-25T16:49:43;4.80;;;1.00;;
59042;SDS011;44826;51.596;5.624;2023-02-25T16:52:12;2.72;;;0.60;;
59042;SDS011;44826;51.596;5.624;2023-02-25T16:54:41;2.25;;;0.60;;
59042;SDS011;44826;51.596;5.624;2023-02-25T16:57:17;2.55;;;0.60;;
59042;SDS011;44826;51.596;5.624;2023-02-25T16:59:44;1.40;;;0.60;;
59042;SDS011;44826;51.596;5.624;2023-02-25T17:04:40;2.17;;;0.60;;
59042;SDS011;44826;51.596;5.624;2023-02-25T17:07:43;1.80;;;0.60;;
59042;SDS011;44826;51.596;5.624;2023-02-25T17:10:02;2.63;;;0.60;;
59042;SDS011;44826;51.596;5.624;2023-02-25T17:14:58;2.87;;;0.60;;
59042;SDS011;44826;51.596;5.624;2023-02-25T17:17:27;2.27;;;0.80;;
59042;SDS011;44826;51.596;5.624;2023-02-25T17:19:56;4.27;;;0.70;;
59042;SDS011;44826;51.596;5.624;2023-02-25T17:22:23;2.23;;;0.70;;
59042;SDS011;44826;51.596;5.624;2023-02-25T17:24:50;2.97;;;0.60;;
59042;SDS011;44826;51.596;5.624;2023-02-25T17:27:18;0.73;;;0.50;;
59042;SDS011;44826;51.596;5.624;2023-02-25T17:29:45;3.33;;;0.80;;
59042;SDS011;44826;51.596;5.624;2023-02-25T17:32:12;1.73;;;0.60;;
59042;SDS011;44826;51.596;5.624;2023-02-25T17:34:38;3.37;;;0.80;;
59042;SDS011;44826;51.596;5.624;2023-02-25T17:37:05;1.93;;;0.60;;
59042;SDS011;44826;51.596;5.624;2023-02-25T17:39:33;3.67;;;0.80;;
59042;SDS011;44826;51.596;5.624;2023-02-25T17:41:59;2.30;;;0.63;;
59042;SDS011;44826;51.596;5.624;2023-02-25T17:47:09;3.23;;;0.80;;
59042;SDS011;44826;51.596;5.624;2023-02-25T17:49:42;2.73;;;0.70;;
59042;SDS011;44826;51.596;5.624;2023-02-25T17:55:22;5.00;;;1.10;;
59042;SDS011;44826;51.596;5.624;2023-02-25T17:57:51;4.43;;;1.10;;
59042;SDS011;44826;51.596;5.624;2023-02-25T18:00:21;4.67;;;1.07;;
59042;SDS011;44826;51.596;5.624;2023-02-25T18:03:06;4.80;;;1.00;;
59042;SDS011;44826;51.596;5.624;2023-02-25T18:05:42;3.53;;;1.00;;
59042;SDS011;44826;51.596;5.624;2023-02-25T18:08:17;3.40;;;0.87;;
59042;SDS011;44826;51.596;5.624;2023-02-25T18:10:47;3.73;;;0.97;;
59042;SDS011;44826;51.596;5.624;2023-02-25T18:13:40;5.17;;;1.00;;
59042;SDS011;44826;51.596;5.624;2023-02-25T18:19:37;3.83;;;1.00;;
59042;SDS011;44826;51.596;5.624;2023-02-25T18:22:00;4.27;;;1.20;;
59042;SDS011;44826;51.596;5.624;2023-02-25T18:24:36;3.50;;;0.90;;
59042;SDS011;44826;51.596;5.624;2023-02-25T18:27:03;3.30;;;1.00;;
59042;SDS011;44826;51.596;5.624;2023-02-25T18:29:30;4.03;;;1.10;;
59042;SDS011;44826;51.596;5.624;2023-02-25T18:31:56;4.73;;;1.20;;
59042;SDS011;44826;51.596;5.624;2023-02-25T18:34:22;3.60;;;1.00;;
59042;SDS011;44826;51.596;5.624;2023-02-25T18:36:47;3.63;;;0.90;;
59042;SDS011;44826;51.596;5.624;2023-02-25T18:39:12;4.40;;;1.00;;
59042;SDS011;44826;51.596;5.624;2023-02-25T18:41:37;2.87;;;0.90;;
59042;SDS011;44826;51.596;5.624;2023-02-25T18:44:08;3.60;;;1.10;;
59042;SDS011;44826;51.596;5.624;2023-02-25T18:46:36;5.17;;;1.07;;
59042;SDS011;44826;51.596;5.624;2023-02-25T18:49:02;4.70;;;1.10;;
59042;SDS011;44826;51.596;5.624;2023-02-25T18:51:27;5.30;;;1.13;;
59042;SDS011;44826;51.596;5.624;2023-02-25T18:53:53;5.07;;;1.17;;
59042;SDS011;44826;51.596;5.624;2023-02-25T18:56:18;2.40;;;0.90;;
59042;SDS011;44826;51.596;5.624;2023-02-25T18:58:44;3.13;;;0.90;;
59042;SDS011;44826;51.596;5.624;2023-02-25T19:01:15;1.67;;;0.73;;
59042;SDS011;44826;51.596;5.624;2023-02-25T19:03:43;2.70;;;1.30;;
59042;SDS011;44826;51.596;5.624;2023-02-25T19:06:09;3.23;;;1.10;;
59042;SDS011;44826;51.596;5.624;2023-02-25T19:08:35;4.40;;;1.43;;